Terminal Aerodrome Forecast
Issued by NWS

Home | Current Version | Previous Version | Text Only | Print | Product List | Glossary On
Versions: 1 2 3 4 5 6 7 8 9 10 11 12 13 14 15 16 17 18 19 20 21 22 23 24 25 26
000
FTUS43 KDLH 300400 AAA
TAFBRD
TAF AMD
KBRD 300420Z 3004/3024 34008KT P6SM SCT025
      TEMPO 3004/3006 BKN025
     FM300600 35005KT P6SM SKC
     FM301500 21007KT P6SM BKN060
     FM301800 18010G18KT P6SM OVC040=

USA.gov is the U.S. government's official web portal to all federal, state and local government web resources and services.